createdAt,value
2023-03-26T00:02:12.283Z,60.06
2023-03-26T00:04:58.961Z,59.50
2023-03-26T00:07:45.620Z,59.69
2023-03-26T00:10:32.567Z,61.75
2023-03-26T00:13:19.199Z,65.11
2023-03-26T00:16:05.959Z,64.87
2023-03-26T00:18:53.561Z,63.59
2023-03-26T00:21:43.289Z,62.35
2023-03-26T00:24:38.942Z,61.62
2023-03-26T00:27:27.376Z,61.34
2023-03-26T00:30:14.882Z,60.84
2023-03-26T00:33:02.911Z,60.01
2023-03-26T00:35:56.168Z,60.31
2023-03-26T00:38:46.276Z,60.24
2023-03-26T00:41:36.284Z,59.19
2023-03-26T00:44:23.092Z,61.48
2023-03-26T00:47:10.412Z,64.07
2023-03-26T00:49:57.023Z,63.69
2023-03-26T00:52:45.645Z,62.48
2023-03-26T00:55:35.349Z,62.16
2023-03-26T00:58:22.050Z,61.15
2023-03-26T01:01:16.217Z,60.73
2023-03-26T01:04:34.069Z,59.92
2023-03-26T01:07:28.278Z,59.59
2023-03-26T01:10:14.545Z,61.94
2023-03-26T01:13:01.345Z,63.86
2023-03-26T01:15:50.461Z,62.94
2023-03-26T01:18:40.450Z,61.98
2023-03-26T01:21:29.740Z,60.83
2023-03-26T01:24:16.403Z,60.52
2023-03-26T01:27:33.000Z,60.26
2023-03-26T01:30:34.754Z,59.80
2023-03-26T01:33:54.255Z,58.47
2023-03-26T01:37:05.523Z,63.36
2023-03-26T01:40:17.598Z,65.31
2023-03-26T01:43:36.303Z,63.98
2023-03-26T01:46:24.994Z,61.83
2023-03-26T01:49:12.637Z,60.73
2023-03-26T01:51:59.366Z,60.49
2023-03-26T01:54:46.155Z,60.75
2023-03-26T01:58:31.038Z,60.35
2023-03-26T02:01:59.346Z,59.03
2023-03-26T02:05:13.485Z,61.22
2023-03-26T02:08:22.057Z,63.92
2023-03-26T02:11:14.311Z,63.44
2023-03-26T02:14:06.528Z,61.87
2023-03-26T02:16:53.304Z,60.45
2023-03-26T02:19:43.064Z,58.84
2023-03-26T02:22:30.020Z,58.93
2023-03-26T02:25:20.568Z,64.05
2023-03-26T02:28:08.010Z,65.30
2023-03-26T02:30:57.140Z,64.84
2023-03-26T02:33:46.871Z,61.77
2023-03-26T02:36:35.236Z,61.38
2023-03-26T02:39:24.750Z,61.07
2023-03-26T02:42:15.678Z,60.90
2023-03-26T02:45:07.003Z,60.76
2023-03-26T02:48:14.533Z,60.23
2023-03-26T02:51:20.609Z,58.86
2023-03-26T02:54:18.311Z,60.99
2023-03-26T02:57:23.595Z,64.61
2023-03-26T03:00:28.447Z,64.15
2023-03-26T03:03:38.403Z,63.58
2023-03-26T03:06:39.873Z,62.50
2023-03-26T03:09:26.306Z,62.50
2023-03-26T03:12:42.504Z,61.81
2023-03-26T03:15:30.559Z,60.61
2023-03-26T03:18:17.327Z,60.42
2023-03-26T03:21:05.490Z,60.02
2023-03-26T03:23:56.329Z,58.86
2023-03-26T03:26:49.638Z,58.28
2023-03-26T03:29:44.360Z,60.87
2023-03-26T03:32:49.851Z,65.80
2023-03-26T03:35:39.518Z,64.85
2023-03-26T03:38:26.403Z,63.06
2023-03-26T03:41:13.599Z,62.88
2023-03-26T03:44:02.159Z,62.45
2023-03-26T03:46:53.473Z,62.02
2023-03-26T03:49:40.707Z,61.35
2023-03-26T03:52:27.572Z,60.97
2023-03-26T03:55:14.688Z,60.25
2023-03-26T03:58:09.388Z,60.07
2023-03-26T04:01:00.218Z,59.89
2023-03-26T04:04:00.897Z,58.51
2023-03-26T04:06:59.358Z,61.18
2023-03-26T04:09:50.161Z,65.01
2023-03-26T04:12:37.169Z,65.67
2023-03-26T04:15:24.824Z,63.66
2023-03-26T04:18:11.654Z,62.13
2023-03-26T04:21:02.486Z,60.84
2023-03-26T04:23:49.812Z,60.28
2023-03-26T04:27:00.629Z,59.96
2023-03-26T04:29:53.807Z,59.03
2023-03-26T04:32:44.008Z,58.54
2023-03-26T04:35:36.161Z,59.46
2023-03-26T04:38:23.697Z,63.60
2023-03-26T04:41:15.002Z,64.91
2023-03-26T04:44:21.676Z,64.40
2023-03-26T04:47:15.424Z,62.62
2023-03-26T04:50:08.846Z,61.86
2023-03-26T04:52:57.664Z,60.92
2023-03-26T04:56:27.390Z,60.48
2023-03-26T04:59:37.090Z,59.28
2023-03-26T05:02:26.089Z,58.37
2023-03-26T05:05:13.877Z,60.80
2023-03-26T05:08:00.426Z,62.67
2023-03-26T05:10:46.848Z,65.84
2023-03-26T05:13:42.204Z,64.47
2023-03-26T05:16:31.171Z,62.93
2023-03-26T05:19:24.710Z,61.54
2023-03-26T05:22:12.678Z,60.56
2023-03-26T05:25:06.795Z,59.81
2023-03-26T05:27:53.384Z,57.70
2023-03-26T05:30:42.801Z,57.27
2023-03-26T05:33:29.796Z,61.13
2023-03-26T05:36:23.807Z,64.22
2023-03-26T05:39:25.077Z,64.63
2023-03-26T05:42:21.266Z,63.99
2023-03-26T05:45:21.760Z,62.62
2023-03-26T05:48:08.672Z,61.52
2023-03-26T05:50:57.868Z,60.21
2023-03-26T05:53:46.103Z,60.10
2023-03-26T05:56:52.134Z,58.11
2023-03-26T05:59:57.253Z,57.89
2023-03-26T06:03:02.703Z,59.18
2023-03-26T06:06:19.883Z,63.39
2023-03-26T06:09:14.093Z,66.37
2023-03-26T06:12:01.422Z,65.21
2023-03-26T06:14:49.745Z,63.55
2023-03-26T06:17:39.412Z,61.91
2023-03-26T06:20:46.620Z,61.23
2023-03-26T06:23:48.395Z,60.61
2023-03-26T06:26:52.035Z,59.89
2023-03-26T06:29:38.532Z,59.69
2023-03-26T06:32:45.143Z,58.00
2023-03-26T06:35:37.351Z,58.13
2023-03-26T06:38:24.813Z,61.05
2023-03-26T06:41:11.449Z,63.88
2023-03-26T06:44:21.577Z,64.41
2023-03-26T06:47:27.895Z,63.13
2023-03-26T06:50:33.062Z,61.25
2023-03-26T06:53:32.685Z,60.08
2023-03-26T06:56:36.323Z,58.07
2023-03-26T06:59:39.422Z,57.30
2023-03-26T07:02:44.981Z,59.81
2023-03-26T11:45:21.948Z,58.31
2023-03-26T11:48:30.133Z,59.73
2023-03-26T11:51:39.658Z,61.38
2023-03-26T11:54:27.596Z,61.55
2023-03-26T11:57:27.905Z,62.79
2023-03-26T12:00:20.408Z,59.88
2023-03-26T12:03:15.370Z,58.33
2023-03-26T12:06:02.211Z,60.06
2023-03-26T12:08:50.528Z,61.07
2023-03-26T12:11:38.994Z,61.77
2023-03-26T12:14:29.630Z,63.00
2023-03-26T12:17:32.064Z,61.42
2023-03-26T12:20:34.221Z,57.89
2023-03-26T12:23:55.568Z,59.19
2023-03-26T12:26:45.825Z,61.39
2023-03-26T12:29:33.908Z,63.35
2023-03-26T12:32:22.465Z,61.00
2023-03-26T12:35:35.502Z,58.62
2023-03-26T12:38:35.059Z,58.63
2023-03-26T12:44:43.867Z,60.47
2023-03-26T12:44:59.389Z,62.84
2023-03-26T12:47:56.987Z,63.85
2023-03-26T12:51:32.617Z,59.48
2023-03-26T12:54:55.312Z,58.03
2023-03-26T12:58:14.072Z,60.27
2023-03-26T13:01:41.435Z,61.69
2023-03-26T13:05:22.672Z,62.60
2023-03-26T13:08:37.623Z,60.24
2023-03-26T13:11:50.713Z,57.49
2023-03-26T13:15:07.372Z,59.35
2023-03-26T13:18:19.112Z,61.46
2023-03-26T13:21:30.441Z,62.39
2023-03-26T13:24:56.937Z,59.52
2023-03-26T13:27:45.788Z,58.13
2023-03-26T13:30:56.188Z,59.61
2023-03-26T13:34:27.852Z,61.31
2023-03-26T13:37:36.616Z,62.85
2023-03-26T13:41:11.757Z,62.12
2023-03-26T13:44:01.601Z,58.62
2023-03-26T13:47:16.228Z,58.49
2023-03-26T13:50:18.008Z,59.58
2023-03-26T13:53:28.329Z,61.81
2023-03-26T13:56:20.013Z,62.88
2023-03-26T13:59:31.298Z,62.17
2023-03-26T14:02:32.793Z,58.27
2023-03-26T14:05:44.945Z,58.35
2023-03-26T14:08:47.189Z,59.11
2023-03-26T14:11:57.427Z,60.55
2023-03-26T14:15:05.679Z,59.80
2023-03-26T14:18:01.318Z,61.42
2023-03-26T14:21:06.813Z,61.00
2023-03-26T14:24:08.029Z,59.82
2023-03-26T14:27:12.568Z,60.92
2023-03-26T14:30:36.591Z,60.47
2023-03-26T14:33:44.270Z,60.66
2023-03-26T14:36:58.548Z,60.87
2023-03-26T14:40:14.437Z,60.84
2023-03-26T14:43:03.782Z,59.58
2023-03-26T14:46:31.161Z,59.01
2023-03-26T14:49:40.291Z,58.48
2023-03-26T14:52:52.782Z,58.19
2023-03-26T14:56:06.525Z,58.11
2023-03-26T14:59:43.587Z,58.12
2023-03-26T15:03:02.410Z,57.69
2023-03-26T15:06:35.342Z,58.21
2023-03-26T15:10:01.119Z,58.86
2023-03-26T15:13:42.706Z,58.81
2023-03-26T15:17:08.839Z,58.13
2023-03-26T15:20:31.373Z,57.55
2023-03-26T15:23:38.881Z,58.12
2023-03-26T15:27:01.266Z,58.44
2023-03-26T15:30:09.715Z,58.94
2023-03-26T15:33:26.022Z,58.96
2023-03-26T15:36:29.729Z,59.36
2023-03-26T15:39:59.434Z,59.81
2023-03-26T15:43:01.223Z,60.19
2023-03-26T15:46:11.509Z,60.76
2023-03-26T15:49:24.389Z,61.25
2023-03-26T15:52:35.988Z,61.60
2023-03-26T15:55:52.033Z,61.91
2023-03-26T15:59:16.189Z,62.27
2023-03-26T16:02:07.042Z,59.78
2023-03-26T16:05:28.837Z,55.79
2023-03-26T16:08:52.376Z,56.74
2023-03-26T16:11:52.199Z,58.02
2023-03-26T16:14:47.495Z,59.08
2023-03-26T16:18:18.907Z,59.79
2023-03-26T16:21:38.718Z,60.17
2023-03-26T16:24:30.376Z,60.92
2023-03-26T16:27:33.464Z,61.27
2023-03-26T16:30:29.843Z,61.71
2023-03-26T16:33:20.640Z,61.57
2023-03-26T16:36:35.993Z,62.17
2023-03-26T16:39:43.676Z,62.13
2023-03-26T16:42:39.349Z,63.07
2023-03-26T16:45:47.926Z,59.59
2023-03-26T16:48:47.337Z,56.38
2023-03-26T16:52:10.632Z,57.52
2023-03-26T16:55:26.633Z,58.84
2023-03-26T16:58:53.240Z,59.66
2023-03-26T17:02:04.465Z,60.24
2023-03-26T17:05:08.918Z,61.03
2023-03-26T17:08:35.391Z,61.36
2023-03-26T17:11:48.057Z,61.69
2023-03-26T17:15:05.346Z,61.88
2023-03-26T17:18:20.792Z,62.29
2023-03-26T17:21:25.764Z,62.93
2023-03-26T17:24:29.038Z,59.54
2023-03-26T17:27:55.187Z,57.72
2023-03-26T17:31:03.006Z,58.61
2023-03-26T17:33:50.141Z,59.52
2023-03-26T17:36:42.943Z,60.81
2023-03-26T17:39:38.331Z,61.41
2023-03-26T17:42:37.707Z,62.79
2023-03-26T17:45:29.907Z,62.68
2023-03-26T17:48:21.821Z,59.67
2023-03-26T17:51:52.099Z,57.21
2023-03-26T17:54:46.884Z,58.02
2023-03-26T17:57:43.708Z,59.22
2023-03-26T18:00:43.002Z,60.48
2023-03-26T18:03:43.497Z,61.51
2023-03-26T18:07:13.080Z,63.27
2023-03-26T18:10:42.673Z,61.91
2023-03-26T18:14:23.449Z,56.56
2023-03-26T18:17:11.527Z,56.55
2023-03-26T18:20:06.569Z,58.22
2023-03-26T18:22:53.984Z,60.27
2023-03-26T18:30:10.026Z,62.99
2023-03-26T18:33:23.834Z,61.91
2023-03-26T18:36:25.722Z,57.04
2023-03-26T18:39:33.578Z,56.63
2023-03-26T18:42:27.285Z,58.10
2023-03-26T18:45:41.325Z,59.49
2023-03-26T18:48:58.975Z,60.68
2023-03-26T18:51:56.696Z,60.97
2023-03-26T18:54:48.245Z,62.17
2023-03-26T18:57:35.994Z,63.87
2023-03-26T19:00:27.295Z,63.28
2023-03-26T19:03:18.936Z,62.09
2023-03-26T19:06:13.069Z,57.39
2023-03-26T19:09:03.103Z,57.39
2023-03-26T19:11:56.476Z,59.12
2023-03-26T19:14:54.891Z,60.93
2023-03-26T19:17:52.914Z,62.75
2023-03-26T19:20:49.781Z,63.47
2023-03-26T19:23:40.488Z,60.19
2023-03-26T19:26:27.230Z,57.61
2023-03-26T19:29:18.691Z,57.93
2023-03-26T19:32:33.184Z,59.31
2023-03-26T19:35:22.976Z,60.57
2023-03-26T19:38:27.174Z,62.94
2023-03-26T19:41:45.235Z,63.32
2023-03-26T19:44:32.930Z,61.58
2023-03-26T19:47:39.115Z,57.96
2023-03-26T19:50:36.350Z,57.97
2023-03-26T19:53:34.812Z,60.00
2023-03-26T19:56:22.320Z,61.15
2023-03-26T19:59:08.930Z,63.44
2023-03-26T20:01:55.349Z,64.64
2023-03-26T20:04:43.362Z,63.13
2023-03-26T20:07:35.284Z,61.75
2023-03-26T20:10:23.707Z,59.07
2023-03-26T20:13:17.205Z,58.04
2023-03-26T20:16:14.777Z,58.83
2023-03-26T20:19:07.814Z,59.72
2023-03-26T20:22:01.021Z,62.91
2023-03-26T20:24:47.967Z,63.83
2023-03-26T20:27:35.094Z,61.58
2023-03-26T20:30:37.030Z,62.42
2023-03-26T20:33:26.490Z,58.44
2023-03-26T20:36:13.622Z,57.93
2023-03-26T20:39:04.899Z,59.57
2023-03-26T20:41:54.180Z,61.64
2023-03-26T20:44:46.484Z,63.82
2023-03-26T20:47:37.083Z,62.78
2023-03-26T20:50:24.203Z,63.68
2023-03-26T20:53:17.676Z,63.37
2023-03-26T20:56:20.306Z,59.27
2023-03-26T20:59:11.493Z,57.58
2023-03-26T21:01:58.775Z,58.64
2023-03-26T21:04:47.669Z,60.41
2023-03-26T21:07:34.563Z,63.85
2023-03-26T21:10:22.483Z,65.66
2023-03-26T21:13:30.637Z,63.50
2023-03-26T21:16:17.501Z,60.08
2023-03-26T21:19:05.170Z,58.25
2023-03-26T21:22:05.932Z,59.99
2023-03-26T21:24:58.508Z,62.26
2023-03-26T21:28:09.128Z,64.45
2023-03-26T21:30:56.581Z,62.46
2023-03-26T21:33:46.071Z,58.91
2023-03-26T21:36:33.081Z,59.76
2023-03-26T21:39:20.702Z,62.90
2023-03-26T21:42:07.852Z,64.19
2023-03-26T21:44:55.510Z,61.38
2023-03-26T21:47:42.981Z,59.76
2023-03-26T21:50:30.597Z,58.38
2023-03-26T21:53:17.924Z,59.95
2023-03-26T21:56:40.772Z,62.41
2023-03-26T21:59:30.360Z,63.51
2023-03-26T22:02:36.319Z,62.29
2023-03-26T22:05:43.324Z,58.86
2023-03-26T22:08:38.233Z,58.30
2023-03-26T22:11:25.449Z,61.55
2023-03-26T22:14:12.914Z,63.96
2023-03-26T22:17:01.648Z,63.79
2023-03-26T22:19:48.643Z,63.10
2023-03-26T22:22:35.919Z,61.96
2023-03-26T22:25:23.427Z,59.01
2023-03-26T22:28:09.933Z,57.46
2023-03-26T22:30:56.683Z,59.25
2023-03-26T22:33:51.968Z,61.58
2023-03-26T22:36:40.453Z,63.07
2023-03-26T22:39:26.955Z,62.01
2023-03-26T22:42:13.491Z,61.16
2023-03-26T22:45:00.163Z,59.35
2023-03-26T22:47:46.676Z,57.88
2023-03-26T22:50:33.294Z,58.78
2023-03-26T22:53:20.321Z,61.16
2023-03-26T22:56:11.095Z,62.93
2023-03-26T22:58:57.618Z,62.45
2023-03-26T23:01:44.895Z,61.02
2023-03-26T23:04:32.414Z,57.59
2023-03-26T23:07:19.206Z,57.89
2023-03-26T23:10:08.720Z,59.13
2023-03-26T23:12:55.952Z,60.61
2023-03-26T23:15:44.494Z,60.51
2023-03-26T23:18:31.334Z,63.70
2023-03-26T23:21:21.912Z,63.98
2023-03-26T23:24:08.506Z,61.02
2023-03-26T23:26:55.307Z,59.70
2023-03-26T23:29:41.758Z,57.04
2023-03-26T23:32:28.756Z,57.22
2023-03-26T23:35:15.981Z,60.09
2023-03-26T23:38:02.747Z,62.39
2023-03-26T23:40:57.269Z,63.39
2023-03-26T23:43:53.521Z,62.06
2023-03-26T23:46:43.642Z,61.00
2023-03-26T23:49:30.122Z,56.33
2023-03-26T23:52:16.700Z,55.81
2023-03-26T23:55:03.646Z,56.26
2023-03-26T23:57:51.013Z,57.91
